Aérodrome :
LOGIN :

S'inscrire | Disclaimer

   EN    FR    IT 

 










Légende :    VFR   VFR Marginal   IFR   IFR Intensif   IFR Très Intensif
Visi : 
Plafond : 
>= 8 km
>= 3000ft
5 à 8 km
1000 à 3000 ft
1500m à 5 km
500 à 1000 ft
800 à 1500m
200 à 500 ft
< 800m
< 200 ft
Symboles :   Orages  Brouillard  Fortes neiges  Fortes précipitations  Vent > 20 kt
SIGMETs :   Divers  Orages  Givrage  Turbulence  Onde Orograph.  Cendres Volcan.







- Altitude de l'aérodrome : 392 ft
- Code IATA : CDG
- Voir les cartes d'approche


LFPG - Paris-Aeroport Charles De Gaulle

DERNIER METAR :
  • 150130Z 13007KT 9999 OVC028 00/M05 Q1023 NOSIG

METARs EXPIRÉS :
  • 150100Z 12005KT 9999 OVC028 00/M06 Q1024 NOSIG
  • 150030Z 16004KT 110V200 9999 OVC027 00/M06 Q1024 NOSIG
  • 150000Z 15006KT 9999 OVC027 M00/M06 Q1024 NOSIG
  • 142330Z 14005KT 9999 OVC027 M00/M06 Q1024 NOSIG
  • 142300Z 15005KT 9999 OVC026 00/M06 Q1024 NOSIG

TAF TAF LFPG
Valide du 15 à 00h jusqu'au 16 à 06h UTC


142300Z 1500/1606 12005KT 9999 BKN026 TX04/1523Z TNM03/1504Z
PROB30
TEMPO 1512/1514 -SN
PROB30
TEMPO 1512/1517 -FZRA
BECMG 1516/1518 -RA BKN006
TEMPO 1520/1521 16015G25KT
PROB40
TEMPO 1518/1524 3000 RA BKN003
BECMG 1603/1606 20005KT
PROB40
TEMPO 1600/1605 3000 BR BKN002
ATIS : +33 1 48 62 10 92
Pas de NOTAMs connus pour ce terrain.



MET'MAP, la Météo Aéronautique d'un coup d'oeil ! - Copyright ORBIFLY Décembre 2007 - Disclaimer

ORBIFLY MET'MAP TEAM :

Programmation & Développement : Alexandra Zaïnal
Conception & Développement : Baudouin d'Aumeries
Co-Programmation & Développement : Marc-Olivier Méhu
Soutien technique & logistique : Manuel Goepfert

Contact : metmap@orbifly.com




SOURCES & CREDITS :

   NOAA